createdAt,value
2023-04-29T00:00:54.571Z,5.93
2023-04-29T00:03:22.247Z,7.15
2023-04-29T00:05:49.764Z,12.00
2023-04-29T00:08:19.462Z,14.23
2023-04-29T00:10:46.004Z,17.60
2023-04-29T00:13:13.744Z,15.40
2023-04-29T00:15:41.814Z,16.98
2023-04-29T00:18:09.583Z,22.90
2023-04-29T00:20:38.277Z,21.65
2023-04-29T00:23:04.871Z,16.75
2023-04-29T00:25:31.691Z,19.63
2023-04-29T00:28:05.130Z,20.35
2023-04-29T00:30:37.117Z,16.30
2023-04-29T00:33:04.096Z,17.75
2023-04-29T00:35:31.023Z,20.40
2023-04-29T00:37:58.266Z,21.83
2023-04-29T00:40:25.025Z,20.33
2023-04-29T00:42:51.744Z,24.30
2023-04-29T00:45:20.973Z,22.33
2023-04-29T00:47:50.774Z,26.10
2023-04-29T00:50:19.166Z,23.58
2023-04-29T00:52:51.885Z,29.02
2023-04-29T00:55:20.615Z,23.95
2023-04-29T00:57:52.769Z,25.52
2023-04-29T01:00:20.423Z,30.60
2023-04-29T01:02:52.547Z,24.77
2023-04-29T01:05:19.488Z,25.60
2023-04-29T01:08:10.355Z,26.95
2023-04-29T01:10:44.614Z,30.23
2023-04-29T01:13:46.482Z,33.58
2023-04-29T01:16:48.286Z,28.50
2023-04-29T01:19:46.351Z,27.48
2023-04-29T01:22:14.910Z,24.75
2023-04-29T01:24:50.829Z,27.40
2023-04-29T01:27:59.013Z,31.88
2023-04-29T01:30:48.701Z,31.77
2023-04-29T01:33:31.446Z,26.67
2023-04-29T01:36:22.083Z,26.90
2023-04-29T01:39:12.346Z,25.83
2023-04-29T01:41:52.271Z,25.48
2023-04-29T01:44:24.567Z,27.38
2023-04-29T01:46:54.161Z,27.23
2023-04-29T01:49:28.711Z,26.77
2023-04-29T01:51:59.792Z,26.27
2023-04-29T01:54:26.675Z,30.17
2023-04-29T01:56:53.300Z,28.63
2023-04-29T01:59:22.180Z,23.90
2023-04-29T02:01:50.387Z,22.77
2023-04-29T02:04:17.234Z,26.25
2023-04-29T02:06:46.976Z,27.45
2023-04-29T02:09:13.584Z,22.67
2023-04-29T02:11:40.117Z,29.77
2023-04-29T02:14:09.121Z,27.13
2023-04-29T02:16:38.802Z,23.55
2023-04-29T02:19:05.460Z,25.63
2023-04-29T02:21:34.612Z,25.17
2023-04-29T02:24:01.828Z,27.85
2023-04-29T02:26:28.444Z,25.17
2023-04-29T02:29:02.831Z,27.92
2023-04-29T02:31:29.680Z,34.53
2023-04-29T02:33:56.277Z,28.67
2023-04-29T02:36:23.099Z,29.55
2023-04-29T02:38:50.963Z,31.83
2023-04-29T02:41:29.274Z,28.90
2023-04-29T02:44:04.105Z,29.42
2023-04-29T02:46:32.885Z,30.92
2023-04-29T02:48:59.832Z,29.60
2023-04-29T02:51:26.752Z,31.55
2023-04-29T02:53:53.414Z,31.23
2023-04-29T02:56:20.270Z,25.80
2023-04-29T02:58:46.854Z,28.88
2023-04-29T03:01:13.593Z,24.70
2023-04-29T03:03:44.064Z,28.33
2023-04-29T03:06:10.900Z,25.50
2023-04-29T03:08:40.332Z,27.02
2023-04-29T03:11:06.948Z,27.92
2023-04-29T03:13:43.630Z,22.65
2023-04-29T03:16:10.717Z,23.40
2023-04-29T03:18:37.690Z,27.40
2023-04-29T03:21:04.802Z,24.80
2023-04-29T03:23:31.582Z,27.45
2023-04-29T03:25:58.814Z,26.63
2023-04-29T03:28:25.879Z,26.27
2023-04-29T03:30:55.784Z,26.60
2023-04-29T03:33:23.070Z,21.23
2023-04-29T03:35:53.772Z,19.13
2023-04-29T03:38:20.479Z,21.77
2023-04-29T03:40:47.132Z,20.02
2023-04-29T03:43:17.479Z,22.05
2023-04-29T03:45:44.013Z,12.43
2023-04-29T03:48:13.298Z,15.13
2023-04-29T03:50:40.586Z,22.20
2023-04-29T03:53:07.480Z,20.02
2023-04-29T03:55:36.333Z,22.48
2023-04-29T03:58:08.801Z,19.45
2023-04-29T04:00:39.163Z,23.40
2023-04-29T04:03:09.445Z,20.48
2023-04-29T04:05:36.059Z,23.80
2023-04-29T04:08:02.709Z,22.50
2023-04-29T04:10:30.076Z,20.80
2023-04-29T04:12:59.531Z,24.98
2023-04-29T04:15:27.095Z,27.17
2023-04-29T04:17:57.179Z,30.27
2023-04-29T04:20:23.850Z,29.45
2023-04-29T04:22:51.885Z,29.20
2023-04-29T04:25:18.608Z,26.90
2023-04-29T04:27:45.145Z,33.08
2023-04-29T04:30:12.251Z,24.67
2023-04-29T04:32:40.609Z,25.40
2023-04-29T04:35:08.062Z,30.60
2023-04-29T04:37:34.960Z,28.83
2023-04-29T04:40:12.406Z,27.58
2023-04-29T04:42:46.022Z,28.13
2023-04-29T04:45:12.870Z,31.02
2023-04-29T04:47:41.553Z,28.15
2023-04-29T04:50:09.023Z,27.77
2023-04-29T04:52:35.632Z,30.77
2023-04-29T04:55:04.324Z,27.23
2023-04-29T04:57:31.048Z,27.92
2023-04-29T04:59:57.752Z,31.17
2023-04-29T05:02:24.550Z,31.63
2023-04-29T05:04:51.409Z,31.83
2023-04-29T05:07:18.074Z,29.63
2023-04-29T05:09:44.674Z,30.27
2023-04-29T05:12:11.576Z,30.58
2023-04-29T05:14:38.158Z,32.22
2023-04-29T05:17:04.840Z,30.75
2023-04-29T05:19:31.436Z,32.85
2023-04-29T05:22:06.848Z,30.67
2023-04-29T05:24:33.400Z,29.75
2023-04-29T05:26:59.999Z,34.13
2023-04-29T05:29:27.300Z,29.60
2023-04-29T05:31:53.883Z,27.55
2023-04-29T05:34:20.535Z,26.42
2023-04-29T05:36:50.802Z,31.00
2023-04-29T05:39:17.801Z,26.85
2023-04-29T05:41:49.742Z,26.05
2023-04-29T05:44:16.399Z,26.85
2023-04-29T05:46:48.004Z,21.55
2023-04-29T05:49:16.480Z,18.30
2023-04-29T05:51:43.044Z,18.75
2023-04-29T05:54:09.872Z,24.88
2023-04-29T05:56:37.858Z,24.08
2023-04-29T05:59:05.178Z,17.25
2023-04-29T06:01:33.006Z,20.15
2023-04-29T06:04:00.789Z,23.00
2023-04-29T06:06:29.111Z,19.80
2023-04-29T06:08:56.074Z,21.45
2023-04-29T06:11:30.193Z,16.90
2023-04-29T06:14:00.578Z,19.15
2023-04-29T06:16:36.451Z,21.98
2023-04-29T06:19:03.927Z,23.85
2023-04-29T06:21:31.661Z,24.23
2023-04-29T06:24:00.805Z,25.95
2023-04-29T06:26:27.501Z,28.05
2023-04-29T06:28:58.971Z,23.17
2023-04-29T06:31:28.865Z,24.00
2023-04-29T06:33:55.753Z,20.73
2023-04-29T06:36:22.441Z,23.25
2023-04-29T06:39:01.353Z,30.17
2023-04-29T06:41:28.344Z,22.50
2023-04-29T06:43:59.246Z,22.80
2023-04-29T06:46:27.813Z,23.83
2023-04-29T06:48:54.680Z,27.30
2023-04-29T06:51:25.050Z,27.75
2023-04-29T06:53:51.775Z,27.65
2023-04-29T06:56:18.912Z,30.25
2023-04-29T06:58:45.553Z,25.70
2023-04-29T07:01:12.756Z,25.38
2023-04-29T07:03:43.931Z,26.15
2023-04-29T07:06:10.817Z,25.92
2023-04-29T07:08:37.544Z,26.63
2023-04-29T07:11:04.366Z,21.90
2023-04-29T07:13:32.816Z,25.65
2023-04-29T07:15:59.491Z,24.17
2023-04-29T07:18:28.286Z,22.58
2023-04-29T07:20:56.241Z,22.23
2023-04-29T07:23:25.662Z,23.55
2023-04-29T07:25:52.405Z,25.35
2023-04-29T07:28:19.067Z,41.28
2023-04-29T07:30:45.729Z,26.20
2023-04-29T07:33:12.499Z,22.50
2023-04-29T07:35:46.409Z,22.33
2023-04-29T07:38:15.815Z,16.27
2023-04-29T07:40:42.506Z,24.65
2023-04-29T07:43:11.690Z,25.38
2023-04-29T07:45:38.560Z,21.15
2023-04-29T07:48:06.888Z,26.55
2023-04-29T07:50:37.215Z,18.77
2023-04-29T07:53:07.765Z,20.98
2023-04-29T07:55:38.163Z,19.33
2023-04-29T07:58:04.913Z,32.70
2023-04-29T08:00:31.892Z,28.38
2023-04-29T08:03:01.636Z,25.50
2023-04-29T08:05:33.720Z,39.60
2023-04-29T08:08:00.732Z,33.25
2023-04-29T08:10:27.439Z,29.48
2023-04-29T08:12:55.276Z,29.95
2023-04-29T08:15:24.105Z,32.30
2023-04-29T08:17:50.844Z,29.60
2023-04-29T08:20:17.635Z,27.45
2023-04-29T08:22:44.914Z,30.13
2023-04-29T08:25:11.657Z,27.73
2023-04-29T08:27:38.340Z,29.48
2023-04-29T08:30:09.072Z,30.30
2023-04-29T08:32:35.936Z,26.35
2023-04-29T08:35:04.197Z,22.98
2023-04-29T08:37:32.886Z,21.63
2023-04-29T08:39:59.590Z,23.42
2023-04-29T08:42:37.871Z,24.73
2023-04-29T08:45:05.219Z,24.27
2023-04-29T08:47:33.938Z,33.70
2023-04-29T08:50:05.911Z,22.92
2023-04-29T08:52:35.276Z,31.23
2023-04-29T08:55:05.800Z,24.83
2023-04-29T08:57:39.998Z,26.90
2023-04-29T09:00:10.732Z,25.45
2023-04-29T09:02:45.797Z,22.13
2023-04-29T09:05:13.079Z,24.05
2023-04-29T09:07:41.023Z,24.08
2023-04-29T09:10:13.252Z,28.20
2023-04-29T09:12:39.867Z,25.40
2023-04-29T09:15:07.252Z,23.98
2023-04-29T09:17:45.067Z,18.52
2023-04-29T09:20:21.281Z,24.23
2023-04-29T09:22:50.778Z,23.25
2023-04-29T09:25:17.915Z,21.02
2023-04-29T09:27:44.828Z,24.85
2023-04-29T09:30:13.580Z,23.13
2023-04-29T09:32:40.258Z,21.95
2023-04-29T09:35:27.505Z,21.77
2023-04-29T09:38:08.070Z,25.40
2023-04-29T09:40:56.752Z,29.40
2023-04-29T09:43:24.814Z,23.48
2023-04-29T09:45:51.894Z,23.20
2023-04-29T09:48:18.816Z,37.17
2023-04-29T09:51:02.214Z,26.63
2023-04-29T09:53:33.531Z,27.30
2023-04-29T09:56:03.352Z,25.73
2023-04-29T09:58:39.146Z,25.20
2023-04-29T10:01:07.831Z,31.30
2023-04-29T10:03:45.462Z,34.38
2023-04-29T10:06:13.081Z,31.70
2023-04-29T10:08:45.860Z,38.58
2023-04-29T10:11:17.801Z,34.13
2023-04-29T10:13:52.133Z,32.28
2023-04-29T10:16:28.322Z,34.60
2023-04-29T10:18:59.647Z,32.38
2023-04-29T10:21:35.721Z,38.58
2023-04-29T10:24:10.867Z,33.42
2023-04-29T10:26:39.602Z,37.58
2023-04-29T10:29:08.556Z,34.05
2023-04-29T10:31:36.783Z,36.47
2023-04-29T10:34:03.561Z,33.45
2023-04-29T10:36:31.546Z,31.45
2023-04-29T10:39:02.189Z,31.92
2023-04-29T10:41:34.843Z,33.83
2023-04-29T10:44:04.032Z,31.45
2023-04-29T10:46:32.738Z,31.63
2023-04-29T10:49:05.144Z,30.85
2023-04-29T10:51:33.132Z,30.27
2023-04-29T10:54:19.088Z,34.03
2023-04-29T10:56:54.560Z,32.78
2023-04-29T10:59:46.075Z,31.85
2023-04-29T11:02:20.637Z,31.55
2023-04-29T11:05:09.475Z,33.00
2023-04-29T11:07:36.313Z,30.00
2023-04-29T11:10:03.666Z,29.48
2023-04-29T11:12:30.729Z,35.65
2023-04-29T11:15:04.260Z,32.20
2023-04-29T11:17:41.536Z,34.97
2023-04-29T11:20:14.369Z,27.65
2023-04-29T11:22:41.232Z,28.73
2023-04-29T11:25:11.815Z,27.83
2023-04-29T11:27:40.575Z,27.08
2023-04-29T11:30:08.262Z,29.23
2023-04-29T11:32:45.436Z,27.38
2023-04-29T11:35:17.058Z,27.83
2023-04-29T11:40:17.194Z,24.83
2023-04-29T11:45:20.454Z,27.75
2023-04-29T11:47:49.157Z,31.25
2023-04-29T11:50:19.242Z,30.80
2023-04-29T11:52:50.151Z,30.23
2023-04-29T11:55:22.533Z,31.92
2023-04-29T11:57:50.671Z,26.65
2023-04-29T12:00:17.431Z,29.65
2023-04-29T12:02:46.832Z,28.77
2023-04-29T12:05:16.108Z,27.13
2023-04-29T12:07:43.742Z,27.10
2023-04-29T12:10:11.833Z,31.45
2023-04-29T12:12:46.915Z,32.30
2023-04-29T12:15:14.446Z,31.73
2023-04-29T12:17:42.544Z,31.40
2023-04-29T12:20:13.071Z,39.45
2023-04-29T12:22:52.493Z,30.17
2023-04-29T12:25:23.245Z,36.33
2023-04-29T12:27:51.795Z,30.73
2023-04-29T12:30:18.443Z,29.65
2023-04-29T12:32:45.463Z,30.13
2023-04-29T12:35:20.435Z,33.38
2023-04-29T12:37:51.373Z,36.28
2023-04-29T12:40:20.691Z,32.60
2023-04-29T12:42:55.385Z,32.38
2023-04-29T12:45:33.360Z,36.08
2023-04-29T12:48:01.467Z,35.25
2023-04-29T12:50:38.622Z,29.40
2023-04-29T12:53:09.049Z,36.60
2023-04-29T12:55:37.287Z,32.92
2023-04-29T12:58:05.487Z,36.10
2023-04-29T13:00:32.649Z,35.33
2023-04-29T13:03:13.361Z,35.90
2023-04-29T13:05:40.787Z,32.37
2023-04-29T13:08:12.183Z,33.00
2023-04-29T13:10:38.881Z,33.83
2023-04-29T13:13:05.677Z,28.90
2023-04-29T13:15:33.238Z,30.55
2023-04-29T13:18:00.125Z,28.88
2023-04-29T13:20:27.125Z,28.45
2023-04-29T13:22:54.382Z,31.05
2023-04-29T13:25:21.285Z,29.73
2023-04-29T13:27:59.796Z,24.42
2023-04-29T13:30:32.929Z,25.67
2023-04-29T13:33:05.089Z,25.05
2023-04-29T13:35:41.703Z,23.88
2023-04-29T13:38:12.046Z,22.73
2023-04-29T13:40:45.219Z,23.45
2023-04-29T13:43:37.891Z,20.45
2023-04-29T13:46:11.431Z,22.70
2023-04-29T13:52:01.470Z,21.10
2023-04-29T14:04:31.128Z,20.27
2023-04-29T14:07:03.781Z,25.80
2023-04-29T14:09:31.222Z,20.30
2023-04-29T14:12:04.594Z,20.38
2023-04-29T14:14:31.990Z,20.90
2023-04-29T14:16:58.925Z,19.02
2023-04-29T14:19:25.844Z,18.00
2023-04-29T14:21:52.603Z,22.40
2023-04-29T14:24:23.883Z,20.55
2023-04-29T14:26:55.226Z,17.65
2023-04-29T14:29:21.915Z,20.25
2023-04-29T14:31:48.565Z,17.33
2023-04-29T14:34:15.519Z,17.42
2023-04-29T14:36:46.561Z,20.33
2023-04-29T14:39:14.851Z,19.00
2023-04-29T14:41:41.510Z,25.38
2023-04-29T14:44:08.166Z,17.70
2023-04-29T14:46:34.894Z,18.27
2023-04-29T14:49:04.368Z,21.83
2023-04-29T14:51:31.281Z,19.60
2023-04-29T14:53:58.043Z,19.92
2023-04-29T14:56:25.193Z,18.20
2023-04-29T14:58:51.889Z,23.83
2023-04-29T15:01:18.696Z,23.45
2023-04-29T15:03:52.068Z,18.40
2023-04-29T15:06:18.898Z,22.13
2023-04-29T15:08:48.547Z,18.92
2023-04-29T15:11:22.436Z,17.52
2023-04-29T15:13:50.529Z,19.88
2023-04-29T15:16:19.413Z,20.92
2023-04-29T15:18:57.421Z,18.35
2023-04-29T15:21:27.164Z,19.75
2023-04-29T15:23:56.376Z,20.90
2023-04-29T15:26:27.351Z,19.25
2023-04-29T15:28:54.090Z,21.30
2023-04-29T15:31:25.380Z,21.10
2023-04-29T15:34:02.923Z,19.95
2023-04-29T15:36:33.664Z,24.92
2023-04-29T15:39:01.074Z,20.35
2023-04-29T15:41:27.981Z,21.95
2023-04-29T15:43:56.547Z,22.45
2023-04-29T15:46:23.712Z,21.23
2023-04-29T15:48:50.457Z,22.30
2023-04-29T15:51:17.146Z,23.65
2023-04-29T15:53:49.927Z,19.63
2023-04-29T15:56:17.238Z,18.58
2023-04-29T15:58:44.110Z,22.20
2023-04-29T16:01:10.782Z,20.70
2023-04-29T16:03:37.457Z,23.02
2023-04-29T16:06:10.808Z,24.27
2023-04-29T16:08:39.040Z,19.45
2023-04-29T16:11:06.046Z,23.90
2023-04-29T16:13:36.164Z,24.20
2023-04-29T16:16:25.954Z,21.88
2023-04-29T16:18:55.821Z,24.65
2023-04-29T16:21:22.442Z,22.10
2023-04-29T16:23:49.723Z,22.38
2023-04-29T16:26:23.018Z,23.27
2023-04-29T16:28:49.634Z,21.67
2023-04-29T16:31:16.401Z,22.35
2023-04-29T16:33:50.553Z,21.17
2023-04-29T16:36:31.661Z,22.10
2023-04-29T16:39:17.808Z,21.83
2023-04-29T16:41:45.681Z,23.52
2023-04-29T16:44:12.829Z,25.70
2023-04-29T16:46:42.800Z,20.42
2023-04-29T16:49:10.859Z,20.55
2023-04-29T16:51:37.623Z,23.75
2023-04-29T16:54:06.112Z,21.42
2023-04-29T16:56:38.753Z,19.52
2023-04-29T16:59:06.684Z,22.08
2023-04-29T17:01:33.745Z,24.65
2023-04-29T17:04:01.284Z,25.23
2023-04-29T17:06:28.060Z,21.15
2023-04-29T17:08:58.190Z,25.25
2023-04-29T17:11:28.118Z,27.35
2023-04-29T17:13:55.059Z,18.33
2023-04-29T17:16:33.266Z,20.10
2023-04-29T17:19:00.452Z,21.98
2023-04-29T17:21:30.612Z,20.20
2023-04-29T17:23:57.332Z,19.83
2023-04-29T17:26:27.349Z,18.52
2023-04-29T17:28:59.306Z,23.55
2023-04-29T17:31:33.922Z,23.58
2023-04-29T17:34:16.700Z,24.02
2023-04-29T17:36:55.993Z,28.63
2023-04-29T17:39:23.182Z,19.48
2023-04-29T17:41:50.029Z,23.48
2023-04-29T17:44:16.867Z,23.30
2023-04-29T17:46:44.530Z,21.05
2023-04-29T17:49:14.222Z,22.25
2023-04-29T17:51:48.427Z,26.90
2023-04-29T17:54:18.340Z,24.83
2023-04-29T17:56:49.698Z,20.27
2023-04-29T17:59:20.109Z,21.85
2023-04-29T18:01:50.896Z,19.55
2023-04-29T18:04:20.828Z,20.77
2023-04-29T18:06:50.083Z,27.70
2023-04-29T18:09:19.875Z,20.65
2023-04-29T18:11:51.624Z,22.23
2023-04-29T18:14:18.267Z,24.52
2023-04-29T18:16:45.048Z,20.25
2023-04-29T18:19:34.729Z,20.15
2023-04-29T18:22:09.917Z,20.70
2023-04-29T18:24:36.760Z,27.15
2023-04-29T18:27:13.865Z,19.45
2023-04-29T18:29:40.520Z,23.50
2023-04-29T18:32:13.588Z,22.25
2023-04-29T18:34:51.568Z,23.20
2023-04-29T18:37:27.146Z,24.13
2023-04-29T18:39:57.231Z,26.08
2023-04-29T18:42:23.976Z,27.60
2023-04-29T18:44:51.518Z,26.00
2023-04-29T18:47:18.336Z,30.17
2023-04-29T18:49:48.276Z,26.70
2023-04-29T18:52:19.635Z,29.50
2023-04-29T18:54:46.256Z,22.80
2023-04-29T18:57:14.343Z,26.13
2023-04-29T18:59:49.030Z,24.80
2023-04-29T19:02:15.750Z,25.50
2023-04-29T19:04:54.714Z,23.92
2023-04-29T19:07:27.528Z,23.55
2023-04-29T19:09:54.669Z,32.72
2023-04-29T19:12:22.764Z,25.63
2023-04-29T19:14:49.341Z,26.52
2023-04-29T19:17:18.319Z,29.17
2023-04-29T19:19:45.151Z,26.70
2023-04-29T19:22:12.234Z,30.55
2023-04-29T19:24:39.584Z,31.15
2023-04-29T19:27:06.739Z,25.02
2023-04-29T19:29:40.066Z,29.75
2023-04-29T19:32:06.764Z,29.38
2023-04-29T19:34:40.886Z,26.05
2023-04-29T19:37:16.222Z,27.90
2023-04-29T19:39:42.851Z,31.15
2023-04-29T19:42:14.676Z,30.98
2023-04-29T19:44:43.474Z,30.63
2023-04-29T19:47:10.155Z,29.52
2023-04-29T19:49:37.627Z,31.95
2023-04-29T19:52:05.374Z,32.55
2023-04-29T19:54:32.627Z,28.88
2023-04-29T19:56:59.338Z,34.22
2023-04-29T19:59:27.713Z,31.70
2023-04-29T20:01:54.612Z,32.13
2023-04-29T20:04:24.016Z,35.72
2023-04-29T20:06:51.567Z,29.92
2023-04-29T20:09:22.261Z,35.00
2023-04-29T20:11:49.752Z,35.10
2023-04-29T20:14:18.432Z,30.90
2023-04-29T20:16:48.029Z,32.42
2023-04-29T20:19:19.473Z,33.60
2023-04-29T20:21:52.273Z,30.05
2023-04-29T20:24:18.971Z,36.15
2023-04-29T20:26:45.876Z,35.70
2023-04-29T20:29:12.539Z,32.38
2023-04-29T20:31:43.059Z,39.00
2023-04-29T20:34:19.944Z,34.80
2023-04-29T20:36:49.453Z,31.65
2023-04-29T20:39:21.722Z,35.33
2023-04-29T20:41:48.491Z,37.28
2023-04-29T20:44:21.034Z,32.53
2023-04-29T20:46:53.056Z,34.30
2023-04-29T20:49:19.977Z,33.05
2023-04-29T20:51:47.375Z,33.53
2023-04-29T20:54:14.380Z,29.30
2023-04-29T20:56:48.138Z,30.38
2023-04-29T20:59:14.801Z,28.92
2023-04-29T21:01:42.225Z,32.97
2023-04-29T21:04:16.970Z,34.58
2023-04-29T21:06:43.712Z,36.08
2023-04-29T21:09:11.291Z,33.55
2023-04-29T21:11:38.300Z,36.70
2023-04-29T21:14:11.366Z,34.55
2023-04-29T21:16:40.989Z,33.92
2023-04-29T21:19:07.777Z,29.70
2023-04-29T21:21:34.294Z,35.20
2023-04-29T21:24:01.432Z,35.47
2023-04-29T21:26:29.842Z,30.48
2023-04-29T21:28:59.069Z,34.25
2023-04-29T21:31:29.848Z,28.40
2023-04-29T21:34:02.035Z,32.03
2023-04-29T21:36:32.540Z,30.15
2023-04-29T21:38:59.037Z,34.67
2023-04-29T21:41:28.334Z,31.58
2023-04-29T21:43:59.927Z,32.03
2023-04-29T21:46:28.722Z,29.05
2023-04-29T21:48:58.015Z,30.38
2023-04-29T21:51:27.841Z,30.95
2023-04-29T21:53:54.412Z,32.40
2023-04-29T21:56:24.666Z,28.30
2023-04-29T21:58:51.448Z,28.27
2023-04-29T22:01:29.449Z,28.23
2023-04-29T22:03:57.376Z,29.67
2023-04-29T22:06:24.707Z,25.35
2023-04-29T22:08:51.441Z,29.35
2023-04-29T22:11:22.095Z,29.80
2023-04-29T22:13:48.938Z,26.15
2023-04-29T22:16:15.905Z,25.40
2023-04-29T22:18:42.509Z,27.90
2023-04-29T22:21:09.058Z,24.52
2023-04-29T22:23:38.263Z,26.98
2023-04-29T22:26:05.212Z,27.95
2023-04-29T22:28:35.138Z,26.52
2023-04-29T22:31:01.910Z,27.13
2023-04-29T22:33:29.963Z,26.80
2023-04-29T22:35:56.567Z,26.02
2023-04-29T22:38:25.318Z,26.58
2023-04-29T22:40:53.661Z,28.90
2023-04-29T22:43:20.226Z,32.95
2023-04-29T22:45:56.993Z,25.83
2023-04-29T22:48:27.332Z,28.02
2023-04-29T22:51:01.313Z,25.83
2023-04-29T22:53:28.013Z,26.50
2023-04-29T22:55:57.727Z,27.15
2023-04-29T22:58:25.792Z,24.88
2023-04-29T23:00:58.426Z,24.98
2023-04-29T23:03:26.140Z,28.38
2023-04-29T23:06:01.018Z,26.33
2023-04-29T23:08:28.027Z,29.50
2023-04-29T23:10:54.771Z,30.48
2023-04-29T23:13:21.486Z,30.48
2023-04-29T23:15:53.269Z,29.70
2023-04-29T23:18:21.079Z,29.75
2023-04-29T23:20:54.508Z,31.55
2023-04-29T23:23:21.093Z,26.02
2023-04-29T23:25:47.805Z,29.92
2023-04-29T23:28:18.762Z,29.23
2023-04-29T23:30:50.252Z,28.95
2023-04-29T23:33:17.015Z,29.75
2023-04-29T23:35:51.256Z,31.20
2023-04-29T23:38:19.122Z,36.30
2023-04-29T23:40:46.656Z,32.45
2023-04-29T23:43:15.003Z,29.75
2023-04-29T23:45:45.269Z,33.33
2023-04-29T23:48:14.891Z,35.80
2023-04-29T23:50:45.822Z,32.15
2023-04-29T23:53:12.447Z,35.28
2023-04-29T23:55:40.421Z,34.80
2023-04-29T23:58:09.385Z,33.45
